createdAt,value
2023-01-13T00:01:34.749Z,4.49
2023-01-13T00:04:05.179Z,4.70
2023-01-13T00:06:34.039Z,4.74
2023-01-13T00:09:04.929Z,4.59
2023-01-13T00:11:33.800Z,4.42
2023-01-13T00:14:03.250Z,4.39
2023-01-13T00:16:32.111Z,3.80
2023-01-13T00:19:01.064Z,3.62
2023-01-13T00:21:29.894Z,3.72
2023-01-13T00:23:58.765Z,3.82
2023-01-13T00:26:33.695Z,3.94
2023-01-13T00:29:04.151Z,4.08
2023-01-13T00:31:33.079Z,4.00
2023-01-13T00:34:02.405Z,3.57
2023-01-13T00:36:31.869Z,3.80
2023-01-13T00:39:00.630Z,3.91
2023-01-13T00:41:50.936Z,4.13
2023-01-13T00:44:18.864Z,4.18
2023-01-13T00:46:47.666Z,3.86
2023-01-13T00:49:16.564Z,4.06
2023-01-13T00:51:45.355Z,4.00
2023-01-13T00:54:14.128Z,4.05
2023-01-13T00:56:44.406Z,4.10
2023-01-13T00:59:14.828Z,4.23
2023-01-13T01:01:43.773Z,4.24
2023-01-13T01:04:12.806Z,4.28
2023-01-13T01:06:41.717Z,4.30
2023-01-13T01:09:14.067Z,4.21
2023-01-13T01:11:44.914Z,4.37
2023-01-13T01:14:14.907Z,4.26
2023-01-13T01:16:43.731Z,4.30
2023-01-13T01:19:12.543Z,4.28
2023-01-13T01:21:42.203Z,4.31
2023-01-13T01:24:11.429Z,4.17
2023-01-13T01:26:41.983Z,4.18
2023-01-13T01:29:15.560Z,4.18
2023-01-13T01:31:45.180Z,4.30
2023-01-13T01:34:14.006Z,4.39
2023-01-13T01:36:42.797Z,4.38
2023-01-13T01:39:11.928Z,4.36
2023-01-13T01:42:00.733Z,4.23
2023-01-13T01:44:55.202Z,4.17
2023-01-13T01:47:25.969Z,4.13
2023-01-13T01:49:55.695Z,4.15
2023-01-13T01:52:31.289Z,4.18
2023-01-13T01:55:03.259Z,4.08
2023-01-13T01:57:37.319Z,4.01
2023-01-13T02:00:09.408Z,4.07
2023-01-13T02:02:45.050Z,4.23
2023-01-13T02:05:14.336Z,4.05
2023-01-13T02:07:45.550Z,4.08
2023-01-13T02:10:18.397Z,3.96
2023-01-13T02:12:50.169Z,4.16
2023-01-13T02:15:23.755Z,4.11
2023-01-13T02:18:12.117Z,4.00
2023-01-13T02:21:03.026Z,4.09
2023-01-13T02:24:33.167Z,4.20
2023-01-13T02:27:38.734Z,4.24
2023-01-13T02:30:51.477Z,4.25
2023-01-13T02:33:39.855Z,3.94
2023-01-13T02:36:17.936Z,4.23
2023-01-13T02:38:52.625Z,4.26
2023-01-13T02:41:46.249Z,3.90
2023-01-13T02:44:19.733Z,4.10
2023-01-13T02:46:54.943Z,3.73
2023-01-13T02:49:32.059Z,4.03
2023-01-13T02:52:08.305Z,4.08
2023-01-13T02:54:40.499Z,3.95
2023-01-13T02:57:11.238Z,3.72
2023-01-13T02:59:42.162Z,3.62
2023-01-13T03:02:17.570Z,3.97
2023-01-13T03:04:52.478Z,4.07
2023-01-13T03:07:42.181Z,3.76
2023-01-13T03:10:20.153Z,3.61
2023-01-13T03:13:01.147Z,4.01
2023-01-13T03:15:40.446Z,4.01
2023-01-13T03:18:21.219Z,4.15
2023-01-13T03:21:00.146Z,4.12
2023-01-13T03:23:35.505Z,4.18
2023-01-13T03:26:13.721Z,4.34
2023-01-13T03:28:50.364Z,4.41
2023-01-13T03:31:23.338Z,4.52
2023-01-13T03:33:58.909Z,4.53
2023-01-13T03:36:30.380Z,4.20
2023-01-13T03:39:06.423Z,4.21
2023-01-13T03:41:40.275Z,3.84
2023-01-13T03:44:25.741Z,4.04
2023-01-13T03:47:04.129Z,4.10
2023-01-13T03:49:40.064Z,3.94
2023-01-13T03:52:13.860Z,3.93
2023-01-13T03:54:49.188Z,3.87
2023-01-13T03:57:21.394Z,4.00
2023-01-13T03:59:54.010Z,4.19
2023-01-13T04:02:34.592Z,4.27
2023-01-13T04:05:09.527Z,4.32
2023-01-13T04:07:43.822Z,4.03
2023-01-13T04:10:15.158Z,3.91
2023-01-13T04:13:02.085Z,3.91
2023-01-13T04:15:34.817Z,3.92
2023-01-13T04:18:10.615Z,3.82
2023-01-13T04:20:41.851Z,3.95
2023-01-13T04:23:11.294Z,4.02
2023-01-13T04:25:41.361Z,4.17
2023-01-13T04:28:10.696Z,3.81
2023-01-13T04:30:40.280Z,3.64
2023-01-13T04:33:09.752Z,3.84
2023-01-13T04:35:40.504Z,3.96
2023-01-13T04:38:11.363Z,3.98
2023-01-13T04:40:40.585Z,3.66
2023-01-13T04:43:09.839Z,3.55
2023-01-13T04:45:38.623Z,3.86
2023-01-13T04:48:08.035Z,4.03
2023-01-13T04:50:36.926Z,4.09
2023-01-13T04:53:07.148Z,5.05
2023-01-13T04:55:36.169Z,6.18
2023-01-13T04:58:06.100Z,6.67
2023-01-13T05:00:35.601Z,5.75
2023-01-13T05:03:05.024Z,5.18
2023-01-13T05:05:33.926Z,5.09
2023-01-13T05:08:03.337Z,5.30
2023-01-13T05:10:33.554Z,4.80
2023-01-13T05:13:20.825Z,5.24
2023-01-13T05:16:07.076Z,6.30
2023-01-13T05:18:36.192Z,6.36
2023-01-13T05:21:25.180Z,5.82
2023-01-13T05:24:11.179Z,5.31
2023-01-13T05:26:41.839Z,5.12
2023-01-13T05:29:10.708Z,4.68
2023-01-13T05:31:39.462Z,4.83
2023-01-13T05:34:08.337Z,4.74
2023-01-13T05:36:37.162Z,4.58
2023-01-13T05:39:06.481Z,5.05
2023-01-13T05:41:52.772Z,6.34
2023-01-13T05:44:22.953Z,6.16
2023-01-13T05:46:51.908Z,6.29
2023-01-13T05:49:20.712Z,6.38
2023-01-13T05:51:49.582Z,5.71
2023-01-13T05:54:18.404Z,5.35
2023-01-13T05:56:47.510Z,5.24
2023-01-13T05:59:16.290Z,4.90
2023-01-13T06:01:46.428Z,4.35
2023-01-13T06:04:15.265Z,4.59
2023-01-13T06:06:44.863Z,4.25
2023-01-13T06:09:13.872Z,4.47
2023-01-13T06:11:42.722Z,4.53
2023-01-13T06:14:11.629Z,4.08
2023-01-13T06:16:40.568Z,4.29
2023-01-13T06:19:13.256Z,4.51
2023-01-13T06:21:42.267Z,4.46
2023-01-13T06:24:11.041Z,4.53
2023-01-13T06:26:42.152Z,4.56
2023-01-13T06:29:14.155Z,4.68
2023-01-13T06:31:43.068Z,4.94
2023-01-13T06:34:15.026Z,5.04
2023-01-13T06:36:47.015Z,5.04
2023-01-13T06:39:19.739Z,4.97
2023-01-13T06:42:09.177Z,4.97
2023-01-13T06:44:38.051Z,4.98
2023-01-13T06:47:08.162Z,4.90
2023-01-13T06:49:38.402Z,4.93
2023-01-13T06:52:07.631Z,5.08
2023-01-13T06:54:36.497Z,5.26
2023-01-13T06:57:05.828Z,5.27
2023-01-13T06:59:35.298Z,5.41
2023-01-13T07:02:04.668Z,5.25
2023-01-13T07:04:33.623Z,5.48
2023-01-13T07:07:03.852Z,5.25
2023-01-13T07:09:32.629Z,5.14
2023-01-13T07:12:02.067Z,4.83
2023-01-13T07:14:48.143Z,4.60
2023-01-13T07:17:25.253Z,4.65
2023-01-13T07:19:54.715Z,4.71
2023-01-13T07:22:25.198Z,5.04
2023-01-13T07:24:54.035Z,4.89
2023-01-13T07:27:22.871Z,4.47
2023-01-13T07:29:51.715Z,4.57
2023-01-13T07:32:20.503Z,5.07
2023-01-13T07:34:49.307Z,5.25
2023-01-13T07:37:18.289Z,5.28
2023-01-13T07:39:50.206Z,5.47
2023-01-13T07:42:36.599Z,5.42
2023-01-13T07:45:06.265Z,5.46
2023-01-13T07:47:35.184Z,5.57
2023-01-13T07:50:04.598Z,5.41
2023-01-13T07:52:33.415Z,5.69
2023-01-13T07:55:03.746Z,5.74
2023-01-13T07:57:32.563Z,5.82
2023-01-13T08:00:02.123Z,5.85
2023-01-13T08:02:33.983Z,5.38
2023-01-13T08:05:03.767Z,5.52
2023-01-13T08:07:32.803Z,5.77
2023-01-13T08:10:03.278Z,5.97
2023-01-13T08:12:54.381Z,5.85
2023-01-13T08:15:25.852Z,5.92
2023-01-13T08:17:54.675Z,5.82
2023-01-13T08:20:23.857Z,5.50
2023-01-13T08:22:52.733Z,6.12
2023-01-13T08:25:23.770Z,7.35
2023-01-13T08:27:52.698Z,7.13
2023-01-13T08:30:22.021Z,7.06
2023-01-13T08:32:51.693Z,6.92
2023-01-13T08:35:21.046Z,6.74
2023-01-13T08:37:50.680Z,6.94
2023-01-13T08:40:22.372Z,6.92
2023-01-13T08:42:53.901Z,6.94
2023-01-13T08:45:22.991Z,7.19
2023-01-13T08:47:52.037Z,7.10
2023-01-13T08:50:20.962Z,6.63
2023-01-13T08:52:49.793Z,6.98
2023-01-13T08:55:18.684Z,7.11
2023-01-13T08:57:47.576Z,6.82
2023-01-13T09:00:18.935Z,6.85
2023-01-13T09:02:47.802Z,6.71
2023-01-13T09:05:17.861Z,6.74
2023-01-13T09:07:46.765Z,6.73
2023-01-13T09:10:15.944Z,6.79
2023-01-13T09:13:02.377Z,6.58
2023-01-13T09:15:32.599Z,6.55
2023-01-13T09:18:02.766Z,6.56
2023-01-13T09:20:31.665Z,6.44
2023-01-13T09:23:00.525Z,6.47
2023-01-13T09:25:29.750Z,6.96
2023-01-13T09:27:58.589Z,7.15
2023-01-13T09:30:27.435Z,7.41
2023-01-13T09:33:26.948Z,7.47
2023-01-13T09:35:59.158Z,8.34
2023-01-13T09:38:28.697Z,8.79
2023-01-13T09:40:57.781Z,8.93
2023-01-13T09:43:53.470Z,9.08
2023-01-13T09:46:39.005Z,8.98
2023-01-13T09:49:15.996Z,9.99
2023-01-13T09:51:53.155Z,10.88
2023-01-13T09:54:32.096Z,11.12
2023-01-13T09:57:02.095Z,11.22
2023-01-13T09:59:36.560Z,9.69
2023-01-13T10:02:23.186Z,9.69
2023-01-13T10:05:11.362Z,10.07
2023-01-13T10:07:49.499Z,9.09
2023-01-13T10:10:25.839Z,9.35
2023-01-13T10:13:12.277Z,10.66
2023-01-13T10:15:47.340Z,9.75
2023-01-13T10:18:23.213Z,10.12
2023-01-13T10:21:02.357Z,10.40
2023-01-13T10:23:46.499Z,10.42
2023-01-13T10:26:39.599Z,9.82
2023-01-13T10:29:22.275Z,9.87
2023-01-13T10:31:51.248Z,10.14
2023-01-13T10:34:20.714Z,9.76
2023-01-13T10:37:05.647Z,9.58
2023-01-13T10:39:45.977Z,9.91
2023-01-13T10:42:16.201Z,9.50
2023-01-13T10:44:50.309Z,8.44
2023-01-13T10:47:25.118Z,8.39
2023-01-13T10:50:20.156Z,8.56
2023-01-13T10:53:01.897Z,8.35
2023-01-13T10:55:33.342Z,8.82
2023-01-13T10:58:14.191Z,8.85
2023-01-13T11:00:43.104Z,8.79
2023-01-13T11:03:18.397Z,9.02
2023-01-13T11:05:53.121Z,9.63
2023-01-13T11:08:25.088Z,9.55
2023-01-13T11:10:56.092Z,8.75
2023-01-13T11:13:31.404Z,8.33
2023-01-13T11:16:06.561Z,8.53
2023-01-13T11:18:51.788Z,9.11
2023-01-13T11:21:25.781Z,9.09
2023-01-13T11:24:05.262Z,9.05
2023-01-13T11:26:47.689Z,8.48
2023-01-13T11:29:25.189Z,8.46
2023-01-13T11:32:02.056Z,9.05
2023-01-13T11:34:35.075Z,9.41
2023-01-13T11:37:13.490Z,9.72
2023-01-13T11:39:53.821Z,9.65
2023-01-13T11:42:30.855Z,9.44
2023-01-13T11:45:06.268Z,9.39
2023-01-13T11:47:36.952Z,9.36
2023-01-13T11:50:15.227Z,8.52
2023-01-13T11:52:58.601Z,8.61
2023-01-13T11:55:36.360Z,9.10
2023-01-13T11:58:23.561Z,9.07
2023-01-13T12:01:22.919Z,9.43
2023-01-13T12:04:09.594Z,10.03
2023-01-13T12:06:41.181Z,10.23
2023-01-13T12:09:44.574Z,10.36
2023-01-13T12:12:27.927Z,9.90
2023-01-13T12:15:23.451Z,10.01
2023-01-13T12:18:05.108Z,10.01
2023-01-13T12:20:41.864Z,9.61
2023-01-13T12:23:22.629Z,9.87
2023-01-13T12:25:55.882Z,10.27
2023-01-13T12:28:30.332Z,9.99
2023-01-13T12:31:01.826Z,10.11
2023-01-13T12:33:45.876Z,9.83
2023-01-13T12:36:19.296Z,9.67
2023-01-13T12:38:51.532Z,9.62
2023-01-13T12:41:34.443Z,9.75
2023-01-13T12:44:20.542Z,9.53
2023-01-13T12:46:56.021Z,9.66
2023-01-13T12:49:32.458Z,9.77
2023-01-13T12:52:18.415Z,9.86
2023-01-13T12:55:09.428Z,9.64
2023-01-13T12:57:39.524Z,9.80
2023-01-13T13:00:17.755Z,9.64
2023-01-13T13:03:24.431Z,9.76
2023-01-13T13:06:02.057Z,9.87
2023-01-13T13:08:45.544Z,9.41
2023-01-13T13:12:02.498Z,9.28
2023-01-13T13:15:07.277Z,9.32
2023-01-13T13:17:45.726Z,9.07
2023-01-13T13:20:53.990Z,8.80
2023-01-13T13:23:49.831Z,9.08
2023-01-13T13:26:30.979Z,9.03
2023-01-13T13:29:13.075Z,9.19
2023-01-13T13:32:04.230Z,9.12
2023-01-13T13:34:44.503Z,8.76
2023-01-13T13:37:58.905Z,8.79
2023-01-13T13:40:50.251Z,8.57
2023-01-13T13:43:39.109Z,8.31
2023-01-13T13:46:42.425Z,8.50
2023-01-13T13:49:12.003Z,7.93
2023-01-13T13:51:49.337Z,8.09
2023-01-13T13:54:21.232Z,7.80
2023-01-13T13:56:51.354Z,7.89
2023-01-13T13:59:23.802Z,7.66
2023-01-13T14:02:01.693Z,7.72
2023-01-13T14:04:32.773Z,7.83
2023-01-13T14:07:16.184Z,7.89
2023-01-13T14:09:47.702Z,7.96
2023-01-13T14:12:21.216Z,7.55
2023-01-13T14:14:51.044Z,7.54
2023-01-13T14:17:23.499Z,7.61
2023-01-13T14:19:54.315Z,7.51
2023-01-13T14:22:24.597Z,7.48
2023-01-13T14:24:57.734Z,7.94
2023-01-13T14:27:29.650Z,7.70
2023-01-13T14:30:00.533Z,7.77
2023-01-13T14:32:36.473Z,7.79
2023-01-13T14:35:07.289Z,7.97
2023-01-13T14:37:39.692Z,7.87
2023-01-13T14:40:45.782Z,7.68
2023-01-13T14:43:17.974Z,7.64
2023-01-13T14:45:57.368Z,7.60
2023-01-13T14:48:33.379Z,7.70
2023-01-13T14:51:05.066Z,8.24
2023-01-13T14:53:40.657Z,8.15
2023-01-13T14:56:43.311Z,8.31
2023-01-13T14:59:48.730Z,8.33
2023-01-13T15:02:48.959Z,8.43
2023-01-13T15:05:49.315Z,8.48
2023-01-13T15:08:30.506Z,8.20
2023-01-13T15:11:02.323Z,8.26
2023-01-13T15:13:35.713Z,8.44
2023-01-13T15:16:07.134Z,8.45
2023-01-13T15:18:40.074Z,8.55
2023-01-13T15:21:09.671Z,8.49
2023-01-13T15:23:39.976Z,8.71
2023-01-13T15:26:22.547Z,8.47
2023-01-13T15:28:52.174Z,7.87
2023-01-13T15:31:21.948Z,8.18
2023-01-13T15:33:51.500Z,8.26
2023-01-13T15:36:27.009Z,8.30
2023-01-13T15:38:56.526Z,7.84
2023-01-13T15:41:44.860Z,7.88
2023-01-13T15:44:33.044Z,7.87
2023-01-13T15:47:04.109Z,7.86
2023-01-13T15:49:36.884Z,7.95
2023-01-13T15:52:14.909Z,7.82
2023-01-13T15:54:43.776Z,7.37
2023-01-13T15:57:22.636Z,7.31
2023-01-13T15:59:52.697Z,7.46
2023-01-13T16:02:22.710Z,7.26
2023-01-13T16:04:53.972Z,7.22
2023-01-13T16:07:24.958Z,7.13
2023-01-13T16:09:54.213Z,7.61
2023-01-13T16:12:24.421Z,7.69
2023-01-13T16:14:53.282Z,7.88
2023-01-13T16:17:23.865Z,7.44
2023-01-13T16:19:53.120Z,7.40
2023-01-13T16:22:22.315Z,7.46
2023-01-13T16:24:51.180Z,7.90
2023-01-13T16:27:21.641Z,8.04
2023-01-13T16:29:52.906Z,8.31
2023-01-13T16:32:21.936Z,8.60
2023-01-13T16:34:51.142Z,8.91
2023-01-13T16:37:22.483Z,8.88
2023-01-13T16:39:52.491Z,9.25
2023-01-13T16:42:21.310Z,9.43
2023-01-13T16:44:53.017Z,9.21
2023-01-13T16:47:24.057Z,8.92
2023-01-13T16:49:52.869Z,9.54
2023-01-13T16:52:21.659Z,9.89
2023-01-13T16:54:50.512Z,9.99
2023-01-13T16:57:19.292Z,9.91
2023-01-13T16:59:48.177Z,9.20
2023-01-13T17:02:20.742Z,8.98
2023-01-13T17:04:49.786Z,8.96
2023-01-13T17:07:19.359Z,8.96
2023-01-13T17:09:48.350Z,8.41
2023-01-13T17:12:17.186Z,8.82
2023-01-13T17:14:46.079Z,9.19
2023-01-13T17:17:23.918Z,9.11
2023-01-13T17:19:54.088Z,9.12
2023-01-13T17:22:23.253Z,8.95
2023-01-13T17:24:52.155Z,8.58
2023-01-13T17:27:21.603Z,8.42
2023-01-13T17:29:50.647Z,8.29
2023-01-13T17:32:20.909Z,8.26
2023-01-13T17:34:51.821Z,8.54
2023-01-13T17:37:21.442Z,8.52
2023-01-13T17:39:51.157Z,8.43
2023-01-13T17:42:20.283Z,8.41
2023-01-13T17:44:50.528Z,8.54
2023-01-13T17:47:19.394Z,8.51
2023-01-13T17:49:48.273Z,8.48
2023-01-13T17:52:18.475Z,8.43
2023-01-13T17:54:47.354Z,8.57
2023-01-13T17:57:16.397Z,8.46
2023-01-13T17:59:47.030Z,8.23
2023-01-13T18:02:15.997Z,7.96
2023-01-13T18:04:45.652Z,8.03
2023-01-13T18:07:14.455Z,8.11
2023-01-13T18:09:44.783Z,8.12
2023-01-13T18:12:13.593Z,8.12
2023-01-13T18:14:42.547Z,8.09
2023-01-13T18:17:11.494Z,8.18
2023-01-13T18:19:57.796Z,8.08
2023-01-13T18:22:44.314Z,7.90
2023-01-13T18:25:32.248Z,7.93
2023-01-13T18:28:02.053Z,7.92
2023-01-13T18:30:30.945Z,7.77
2023-01-13T18:32:59.878Z,7.56
2023-01-13T18:35:31.097Z,7.84
2023-01-13T18:37:59.987Z,7.86
2023-01-13T18:40:31.143Z,8.04
2023-01-13T18:42:59.297Z,8.02
2023-01-13T18:45:30.218Z,8.10
2023-01-13T18:48:02.287Z,8.27
2023-01-13T18:50:32.603Z,8.16
2023-01-13T18:53:02.092Z,8.05
2023-01-13T18:55:32.339Z,8.01
2023-01-13T18:58:02.111Z,7.97
2023-01-13T19:00:36.498Z,7.93
2023-01-13T19:05:38.256Z,7.56
2023-01-13T19:08:07.331Z,7.29
2023-01-13T19:10:37.646Z,7.28
2023-01-13T19:13:06.508Z,6.67
2023-01-13T19:15:37.736Z,6.56
2023-01-13T19:18:06.789Z,6.18
2023-01-13T19:20:35.954Z,6.32
2023-01-13T19:23:04.832Z,7.60
2023-01-13T19:25:33.784Z,8.46
2023-01-13T19:28:04.261Z,8.37
2023-01-13T19:30:33.054Z,8.06
2023-01-13T19:33:02.143Z,8.02
2023-01-13T19:35:31.084Z,8.26
2023-01-13T19:38:00.044Z,7.91
2023-01-13T19:40:30.039Z,7.21
2023-01-13T19:43:16.080Z,6.87
2023-01-13T19:45:46.388Z,6.72
2023-01-13T19:48:16.373Z,6.71
2023-01-13T19:50:45.178Z,6.70
2023-01-13T19:53:17.908Z,6.36
2023-01-13T19:55:48.617Z,6.31
2023-01-13T19:58:18.897Z,6.11
2023-01-13T20:00:49.207Z,6.71
2023-01-13T20:03:20.619Z,6.87
2023-01-13T20:05:49.483Z,6.85
2023-01-13T20:08:20.737Z,6.62
2023-01-13T20:10:50.478Z,6.39
2023-01-13T20:13:19.322Z,6.29
2023-01-13T20:15:49.591Z,6.12
2023-01-13T20:18:18.839Z,5.97
2023-01-13T20:20:47.680Z,6.01
2023-01-13T20:23:16.522Z,5.89
2023-01-13T20:25:45.359Z,5.98
2023-01-13T20:28:14.248Z,6.04
2023-01-13T20:30:43.105Z,6.09
2023-01-13T20:33:13.825Z,6.14
2023-01-13T20:35:44.941Z,5.92
2023-01-13T20:38:14.087Z,5.81
2023-01-13T20:40:42.944Z,5.33
2023-01-13T20:43:10.774Z,5.20
2023-01-13T20:45:40.514Z,5.07
2023-01-13T20:48:09.320Z,5.13
2023-01-13T20:50:39.552Z,5.12
2023-01-13T20:53:08.359Z,5.12
2023-01-13T20:55:40.227Z,6.35
2023-01-13T20:58:09.055Z,6.26
2023-01-13T21:00:37.974Z,6.20
2023-01-13T21:03:06.826Z,5.75
2023-01-13T21:05:36.928Z,6.06
2023-01-13T21:08:07.359Z,6.17
2023-01-13T21:10:36.186Z,6.15
2023-01-13T21:13:33.726Z,5.85
2023-01-13T21:16:02.564Z,5.64
2023-01-13T21:18:48.773Z,5.66
2023-01-13T21:21:17.662Z,5.49
2023-01-13T21:23:52.840Z,5.44
2023-01-13T21:26:23.233Z,5.34
2023-01-13T21:28:52.382Z,5.44
2023-01-13T21:31:21.213Z,5.43
2023-01-13T21:33:54.108Z,5.24
2023-01-13T21:36:23.176Z,5.30
2023-01-13T21:38:53.992Z,5.00
2023-01-13T21:41:36.855Z,5.07
2023-01-13T21:44:23.407Z,5.12
2023-01-13T21:47:06.013Z,5.01
2023-01-13T21:49:34.881Z,4.91
2023-01-13T21:52:03.707Z,5.00
2023-01-13T21:54:33.929Z,5.23
2023-01-13T21:57:03.219Z,5.04
2023-01-13T21:59:31.999Z,4.63
2023-01-13T22:02:23.635Z,4.60
2023-01-13T22:04:53.735Z,4.42
2023-01-13T22:07:22.608Z,4.43
2023-01-13T22:09:52.852Z,4.48
2023-01-13T22:12:24.218Z,4.41
2023-01-13T22:14:53.406Z,4.35
2023-01-13T22:17:24.423Z,4.45
2023-01-13T22:19:57.175Z,4.56
2023-01-13T22:22:26.789Z,4.83
2023-01-13T22:24:57.017Z,4.53
2023-01-13T22:27:29.008Z,4.77
2023-01-13T22:29:58.253Z,4.89
2023-01-13T22:32:27.088Z,5.12
2023-01-13T22:34:55.862Z,5.21
2023-01-13T22:37:24.729Z,5.20
2023-01-13T22:39:53.552Z,5.20
2023-01-13T22:42:23.707Z,5.15
2023-01-13T22:44:52.560Z,5.22
2023-01-13T22:47:21.383Z,5.42
2023-01-13T22:49:50.259Z,5.42
2023-01-13T22:52:19.159Z,5.18
2023-01-13T22:54:47.998Z,5.33
2023-01-13T22:57:16.828Z,5.33
2023-01-13T22:59:47.011Z,5.31
2023-01-13T23:02:15.855Z,5.30
2023-01-13T23:04:44.742Z,5.34
2023-01-13T23:07:13.525Z,5.37
2023-01-13T23:09:42.364Z,5.43
2023-01-13T23:12:11.184Z,5.44
2023-01-13T23:14:39.949Z,5.59
2023-01-13T23:17:10.142Z,5.34
2023-01-13T23:19:39.044Z,5.06
2023-01-13T23:22:07.879Z,5.06
2023-01-13T23:24:36.700Z,5.14
2023-01-13T23:27:05.862Z,4.79
2023-01-13T23:29:34.722Z,4.63
2023-01-13T23:32:03.694Z,4.61
2023-01-13T23:34:33.978Z,4.45
2023-01-13T23:37:03.220Z,4.48
2023-01-13T23:39:32.029Z,4.50
2023-01-13T23:42:00.944Z,4.60
2023-01-13T23:44:29.745Z,4.55
2023-01-13T23:46:59.467Z,4.40
2023-01-13T23:49:28.394Z,4.17
2023-01-13T23:51:58.620Z,4.06
2023-01-13T23:54:27.529Z,4.13
2023-01-13T23:56:57.342Z,4.53
2023-01-13T23:59:26.529Z,4.10
